Time;durP1;ratioP1;P1;durP2;ratioP2;P2;SDS_P1;SDS_P2;PMS_P1;PMS_P2;Temp;Humidity;BMP_temperature;BMP_pressure;BME280_temperature;BME280_humidity;BME280_pressure;Samples;Min_cycle;Max_cycle;Signal;HPM_P1;HPM_P2
2021/09/19 15:33:08;;;;;;;14.70;8.88;;;;;;;15.54;100.00;98940.83;4585397;76;85534;-86
2021/09/19 15:39:11;;;;;;;12.28;8.55;;;;;;;15.31;100.00;98946.19;4494430;77;28526;-83
2021/09/19 15:45:13;;;;;;;10.82;7.65;;;;;;;15.41;100.00;98947.59;4485160;77;28533;-85
2021/09/19 15:51:17;;;;;;;13.28;8.08;;;;;;;15.60;100.00;98948.44;4480937;77;28560;-84
2021/09/19 15:57:19;;;;;;;14.20;8.50;;;;;;;15.79;100.00;98942.53;4497899;77;28521;-81
2021/09/19 16:03:20;;;;;;;12.90;8.88;;;;;;;15.45;100.00;98951.91;4500947;77;28532;-85
2021/09/19 16:09:22;;;;;;;15.20;8.90;;;;;;;15.51;100.00;98946.80;4494003;77;28491;-90
2021/09/19 16:15:25;;;;;;;13.05;8.08;;;;;;;15.29;100.00;98944.27;4425587;78;28446;-87
2021/09/19 16:21:26;;;;;;;13.38;9.08;;;;;;;15.29;100.00;98941.03;4396766;80;28502;-88
2021/09/19 16:27:28;;;;;;;14.13;9.50;;;;;;;15.51;100.00;98951.38;4432503;79;28447;-92
2021/09/19 16:33:30;;;;;;;13.48;8.83;;;;;;;15.36;100.00;98952.97;4306241;83;28463;-89
2021/09/19 16:39:31;;;;;;;15.32;9.88;;;;;;;15.56;100.00;98956.28;4358436;81;28477;-88
2021/09/19 16:45:33;;;;;;;16.62;9.43;;;;;;;15.27;100.00;98954.55;4400723;80;28473;-90
2021/09/19 16:51:37;;;;;;;13.65;8.88;;;;;;;15.25;100.00;98945.33;4347043;80;28483;-89
2021/09/19 16:57:41;;;;;;;14.00;8.85;;;;;;;15.30;100.00;98951.31;4313468;81;28497;-86
2021/09/19 17:03:43;;;;;;;16.45;10.15;;;;;;;15.38;100.00;98948.66;4351696;80;28505;-87
2021/09/19 17:09:44;;;;;;;14.20;9.45;;;;;;;15.23;100.00;98948.84;4281075;81;28511;-87
2021/09/19 17:15:46;;;;;;;15.00;9.88;;;;;;;15.36;100.00;98955.67;4345086;80;28445;-89
2021/09/19 17:21:48;;;;;;;15.88;9.13;;;;;;;15.26;100.00;98958.34;4376958;81;28502;-88
2021/09/19 17:27:49;;;;;;;16.17;10.23;;;;;;;15.28;100.00;98963.78;4294631;81;28563;-84
2021/09/19 17:33:51;;;;;;;16.23;9.88;;;;;;;15.35;100.00;98960.82;4412758;78;28463;-83
2021/09/19 17:39:52;;;;;;;14.70;9.05;;;;;;;15.33;100.00;98968.41;4303203;80;28437;-83
2021/09/19 17:45:54;;;;;;;14.00;9.13;;;;;;;15.45;100.00;98977.12;4353164;80;28460;-83
2021/09/19 17:51:55;;;;;;;17.10;10.95;;;;;;;15.33;100.00;98977.33;4371217;80;28432;-88
2021/09/19 17:57:56;;;;;;;19.37;10.95;;;;;;;15.41;100.00;98981.45;4335589;80;28490;-90
2021/09/19 18:03:58;;;;;;;16.67;10.35;;;;;;;15.41;100.00;98995.52;4359028;80;28484;-90
2021/09/19 18:09:59;;;;;;;14.93;9.33;;;;;;;15.43;100.00;98997.42;4382624;79;28486;-85
2021/09/19 18:16:01;;;;;;;19.05;11.48;;;;;;;15.54;100.00;98992.88;4342140;80;28490;-82
2021/09/19 18:22:03;;;;;;;19.75;11.25;;;;;;;15.29;100.00;98981.66;4335989;80;28479;-88
2021/09/19 18:28:12;;;;;;;16.27;10.53;;;;;;;15.41;100.00;98980.09;4322880;80;28490;-86
2021/09/19 18:34:08;;;;;;;20.08;11.33;;;;;;;15.27;100.00;98987.88;4333053;80;28448;-84
2021/09/19 18:40:11;;;;;;;17.80;11.22;;;;;;;15.30;100.00;98990.05;4328328;80;28472;-85
2021/09/19 18:46:13;;;;;;;22.22;12.13;;;;;;;15.29;100.00;98986.25;4345817;80;28553;-86
2021/09/19 18:52:15;;;;;;;19.57;10.13;;;;;;;15.10;100.00;98988.59;4401281;79;28479;-85
2021/09/19 18:58:16;;;;;;;18.87;11.33;;;;;;;15.07;100.00;98984.52;4410672;79;28426;-86
2021/09/19 19:04:18;;;;;;;19.15;12.20;;;;;;;15.10;100.00;98987.24;4402651;79;28450;-85
2021/09/19 19:10:20;;;;;;;17.73;11.80;;;;;;;14.99;100.00;98987.70;4376599;79;28456;-86
2021/09/19 19:16:21;;;;;;;19.75;11.48;;;;;;;15.06;100.00;98988.30;4401783;80;28523;-87
2021/09/19 19:22:23;;;;;;;19.05;11.60;;;;;;;15.05;100.00;98988.02;4396804;79;28460;-86
2021/09/19 19:28:25;;;;;;;19.77;11.65;;;;;;;15.15;100.00;98999.44;4380467;79;28486;-85
2021/09/19 19:34:26;;;;;;;21.23;12.35;;;;;;;15.20;100.00;99000.84;4339296;80;28491;-85
2021/09/19 19:40:28;;;;;;;18.05;10.93;;;;;;;15.12;100.00;98992.67;4338909;80;28467;-85
2021/09/19 19:46:29;;;;;;;20.10;11.25;;;;;;;15.23;100.00;99001.66;4320038;80;28519;-85
2021/09/19 19:52:31;;;;;;;20.23;11.80;;;;;;;15.21;100.00;99004.38;4342274;80;28467;-87
2021/09/19 19:58:34;;;;;;;20.37;11.90;;;;;;;15.17;100.00;98999.46;4315247;80;28522;-87
2021/09/19 20:04:36;;;;;;;17.55;10.55;;;;;;;15.17;100.00;99001.38;4343244;80;28513;-85
2021/09/19 20:10:37;;;;;;;18.48;10.93;;;;;;;15.30;100.00;99002.24;4336641;80;28532;-84
2021/09/19 20:16:39;;;;;;;20.50;12.25;;;;;;;15.12;100.00;99004.03;4264521;81;28530;-86
2021/09/19 20:22:43;;;;;;;18.65;11.95;;;;;;;15.05;100.00;99006.98;4251226;81;28483;-85
2021/09/19 20:28:45;;;;;;;17.82;11.22;;;;;;;15.14;100.00;99010.00;4279594;80;28504;-82
2021/09/19 20:34:46;;;;;;;17.32;11.40;;;;;;;15.12;100.00;99010.80;4323877;80;28534;-82
2021/09/19 20:40:48;;;;;;;22.77;12.25;;;;;;;14.94;100.00;99009.34;4371526;80;28465;-85
2021/09/19 20:46:49;;;;;;;20.95;12.75;;;;;;;15.01;100.00;99008.03;4367582;80;28446;-84
2021/09/19 20:52:53;;;;;;;20.05;11.73;;;;;;;14.84;100.00;99004.66;4308637;81;28492;-80
2021/09/19 20:58:54;;;;;;;18.77;11.63;;;;;;;14.80;100.00;99008.45;4370747;81;28423;-82
2021/09/19 21:04:56;;;;;;;19.12;11.33;;;;;;;14.81;100.00;99013.31;4369500;80;28506;-82
2021/09/19 21:10:57;;;;;;;20.00;11.83;;;;;;;14.93;100.00;99009.07;4376204;81;28447;-80
2021/09/19 21:16:59;;;;;;;17.95;11.45;;;;;;;14.98;100.00;99003.67;4383247;80;28477;-82
2021/09/19 21:23:01;;;;;;;17.82;10.75;;;;;;;14.95;100.00;99005.03;4335281;80;28518;-83
2021/09/19 21:29:05;;;;;;;18.42;11.73;;;;;;;15.13;100.00;99007.84;4354228;80;28495;-83
2021/09/19 21:35:08;;;;;;;20.97;11.93;;;;;;;15.14;100.00;99009.47;4335338;80;28491;-80
2021/09/19 21:41:10;;;;;;;19.73;12.05;;;;;;;15.24;100.00;99009.25;4315902;80;28479;-80
2021/09/19 21:47:11;;;;;;;18.95;11.40;;;;;;;15.16;100.00;99005.16;4327039;80;28527;-81
2021/09/19 21:53:12;;;;;;;20.88;11.45;;;;;;;14.91;100.00;99006.61;4320178;80;28553;-79
2021/09/19 21:59:14;;;;;;;19.20;11.35;;;;;;;15.05;100.00;99015.93;4331485;80;28512;-80
2021/09/19 22:05:15;;;;;;;25.57;12.78;;;;;;;15.04;100.00;99016.98;4307019;80;28455;-81
2021/09/19 22:11:28;;;;;;;18.62;11.85;;;;;;;15.15;100.00;99017.04;4325731;80;28477;-80
2021/09/19 22:17:25;;;;;;;18.70;11.33;;;;;;;15.05;100.00;99015.93;4309799;80;28521;-81
2021/09/19 22:23:26;;;;;;;19.92;10.90;;;;;;;15.11;100.00;99018.66;4310823;80;28570;-82
2021/09/19 22:29:28;;;;;;;18.25;10.55;;;;;;;15.28;100.00;99013.89;4323217;80;28501;-82
2021/09/19 22:35:29;;;;;;;21.55;11.85;;;;;;;15.27;100.00;99019.03;4354021;78;28470;-83
2021/09/19 22:41:31;;;;;;;21.30;11.83;;;;;;;15.23;100.00;99013.84;4352358;80;28517;-82
2021/09/19 22:47:33;;;;;;;18.98;12.18;;;;;;;15.20;100.00;99025.21;4368809;80;28519;-84
2021/09/19 22:53:35;;;;;;;18.60;10.75;;;;;;;15.19;100.00;99024.94;4354657;80;28544;-82
2021/09/19 22:59:36;;;;;;;19.42;11.83;;;;;;;15.13;100.00;99020.03;4371481;80;28514;-84
2021/09/19 23:05:39;;;;;;;23.10;12.65;;;;;;;15.25;100.00;99021.16;4346480;80;28483;-83
2021/09/19 23:11:41;;;;;;;18.70;11.75;;;;;;;15.25;100.00;99017.09;4337800;80;28501;-80
2021/09/19 23:17:42;;;;;;;19.60;11.57;;;;;;;15.32;100.00;99009.56;4338960;80;28500;-81
2021/09/19 23:23:44;;;;;;;18.57;11.35;;;;;;;15.41;100.00;99011.77;4341017;80;28493;-80
2021/09/19 23:29:45;;;;;;;19.75;11.95;;;;;;;15.38;100.00;99011.75;4360862;80;28540;-80
2021/09/19 23:35:47;;;;;;;19.80;11.60;;;;;;;15.45;100.00;99019.11;4336219;80;28506;-82
2021/09/19 23:41:48;;;;;;;18.75;10.80;;;;;;;15.41;100.00;99014.48;4316621;80;28452;-82
2021/09/19 23:47:50;;;;;;;19.15;11.10;;;;;;;15.52;100.00;99014.00;4295850;80;28504;-82
2021/09/19 23:53:51;;;;;;;22.02;11.83;;;;;;;15.27;100.00;99016.32;4311606;80;28555;-81
2021/09/19 23:59:52;;;;;;;20.08;12.10;;;;;;;15.32;100.00;99027.16;4308697;80;28533;-82
